Time;durP1;ratioP1;P1;durP2;ratioP2;P2;SDS_P1;SDS_P2;PMS_P1;PMS_P2;Temp;Humidity;BMP_temperature;BMP_pressure;BME280_temperature;BME280_humidity;BME280_pressure;Samples;Min_cycle;Max_cycle;Signal;HPM_P1;HPM_P2
2021/08/17 00:01:56;;;;;;;23.02;15.70;;;;;;;20.58;100.00;98604.89;1684921;85;21609;-69
2021/08/17 00:04:24;;;;;;;26.23;16.30;;;;;;;20.59;100.00;98598.58;1684477;85;21552;-69
2021/08/17 00:06:52;;;;;;;39.98;17.85;;;;;;;20.64;100.00;98595.17;1684886;85;21135;-70
2021/08/17 00:09:21;;;;;;;22.87;15.63;;;;;;;20.68;100.00;98606.11;1684536;85;21055;-70
2021/08/17 00:11:50;;;;;;;23.22;15.93;;;;;;;20.77;100.00;98609.23;1684592;85;20952;-69
2021/08/17 00:14:19;;;;;;;22.80;16.02;;;;;;;20.80;100.00;98601.02;1684687;85;21955;-69
2021/08/17 00:16:48;;;;;;;22.42;15.25;;;;;;;20.84;100.00;98594.08;1684636;85;21012;-69
2021/08/17 00:19:18;;;;;;;23.18;16.05;;;;;;;20.89;100.00;98601.39;1684657;85;21502;-69
2021/08/17 00:21:47;;;;;;;25.37;14.68;;;;;;;20.92;100.00;98604.38;1697269;84;21497;-70
2021/08/17 00:24:16;;;;;;;21.48;15.15;;;;;;;20.95;100.00;98600.17;1697306;84;20978;-70
2021/08/17 00:26:44;;;;;;;22.75;15.43;;;;;;;20.91;100.00;98596.80;1684703;85;21150;-70
2021/08/17 00:29:12;;;;;;;20.88;14.80;;;;;;;20.84;100.00;98599.45;1684632;85;21007;-70
2021/08/17 00:31:41;;;;;;;23.00;15.68;;;;;;;20.81;100.00;98592.02;1684728;85;21474;-70
2021/08/17 00:34:10;;;;;;;25.72;15.43;;;;;;;20.80;100.00;98596.52;1684788;85;21008;-70
2021/08/17 00:36:38;;;;;;;22.42;15.08;;;;;;;20.82;100.00;98598.67;1684935;85;20928;-70
2021/08/17 00:39:07;;;;;;;20.37;15.13;;;;;;;20.81;100.00;98594.26;1684744;85;21493;-70
2021/08/17 00:41:38;;;;;;;22.90;14.73;;;;;;;20.71;100.00;98591.20;1684701;85;21463;-69
2021/08/17 00:44:18;;;;;;;23.87;14.47;;;;;;;20.62;100.00;98593.05;1684874;85;20952;-70
2021/08/17 00:46:48;;;;;;;23.20;15.37;;;;;;;20.49;100.00;98596.50;1684833;85;21534;-70
2021/08/17 00:49:17;;;;;;;23.32;14.95;;;;;;;20.33;100.00;98592.39;1679402;85;21581;-70
2021/08/17 00:51:46;;;;;;;22.52;15.20;;;;;;;20.19;100.00;98588.26;1665958;84;21550;-70
2021/08/17 00:54:15;;;;;;;21.97;14.90;;;;;;;20.04;100.00;98592.16;1669380;85;20923;-70
2021/08/17 00:56:44;;;;;;;25.82;15.78;;;;;;;19.91;100.00;98596.43;1669732;85;20943;-70
2021/08/17 00:59:13;;;;;;;23.05;14.43;;;;;;;19.81;100.00;98597.36;1641048;86;21451;-70
2021/08/17 01:01:41;;;;;;;22.48;14.65;;;;;;;19.72;100.00;98599.64;1669506;85;20952;-70
2021/08/17 01:04:10;;;;;;;26.70;15.15;;;;;;;19.61;100.00;98608.23;1669448;85;21446;-70
2021/08/17 01:06:38;;;;;;;24.20;14.68;;;;;;;19.51;100.00;98604.26;1694040;84;20944;-71
2021/08/17 01:09:10;;;;;;;19.02;13.68;;;;;;;19.45;100.00;98605.91;1693746;84;21502;-70
2021/08/17 01:11:48;;;;;;;24.30;14.25;;;;;;;19.44;100.00;98603.70;1693869;84;21526;-70
2021/08/17 01:14:20;;;;;;;23.00;14.35;;;;;;;19.43;100.00;98599.77;1693954;84;21433;-71
2021/08/17 01:16:48;;;;;;;24.23;14.20;;;;;;;19.38;100.00;98599.97;1694143;84;21135;-71
2021/08/17 01:19:19;;;;;;;21.95;13.88;;;;;;;19.32;100.00;98602.95;1693839;84;21235;-71
2021/08/17 01:21:49;;;;;;;22.98;13.90;;;;;;;19.26;100.00;98599.72;1693959;84;21518;-71
2021/08/17 01:24:19;;;;;;;23.73;14.73;;;;;;;19.23;100.00;98603.89;1694216;84;20955;-71
2021/08/17 01:26:47;;;;;;;21.97;13.72;;;;;;;19.16;100.00;98600.66;1693881;84;21030;-71
2021/08/17 01:29:16;;;;;;;26.68;14.07;;;;;;;19.08;100.00;98593.48;1715150;82;21167;-72
2021/08/17 01:31:45;;;;;;;20.68;13.48;;;;;;;19.06;100.00;98599.37;1699546;84;21020;-71
2021/08/17 01:34:14;;;;;;;23.00;13.83;;;;;;;19.05;100.00;98596.31;1699517;84;21565;-71
2021/08/17 01:36:42;;;;;;;23.30;13.25;;;;;;;19.01;100.00;98588.91;1699553;84;20945;-71
2021/08/17 01:39:11;;;;;;;21.10;13.80;;;;;;;19.02;100.00;98593.31;1699466;84;21411;-71
2021/08/17 01:41:40;;;;;;;23.07;14.15;;;;;;;19.01;100.00;98589.38;1699514;84;21186;-71
2021/08/17 01:44:16;;;;;;;22.17;13.43;;;;;;;18.99;100.00;98594.80;1699666;84;20909;-72
2021/08/17 01:46:45;;;;;;;19.92;13.43;;;;;;;18.97;100.00;98590.48;1704511;84;21521;-71
2021/08/17 01:49:20;;;;;;;19.87;14.00;;;;;;;18.94;100.00;98590.16;1702208;83;21062;-71
2021/08/17 01:51:52;;;;;;;25.77;13.88;;;;;;;18.92;100.00;98589.36;1697322;83;20994;-72
2021/08/17 01:54:20;;;;;;;27.98;13.78;;;;;;;18.97;100.00;98586.00;1693424;84;21211;-70
2021/08/17 01:56:49;;;;;;;23.87;13.45;;;;;;;18.98;100.00;98585.52;1696341;83;21442;-70
2021/08/17 01:59:19;;;;;;;21.15;13.00;;;;;;;18.97;100.00;98584.66;1693475;84;20994;-70
2021/08/17 02:01:47;;;;;;;28.12;14.20;;;;;;;18.97;100.00;98574.44;1693498;83;20947;-70
2021/08/17 02:04:16;;;;;;;22.15;14.00;;;;;;;18.94;100.00;98578.13;1694908;84;21552;-70
2021/08/17 02:06:44;;;;;;;22.98;13.95;;;;;;;18.91;100.00;98581.39;1693584;84;21923;-70
2021/08/17 02:09:14;;;;;;;31.93;14.55;;;;;;;18.88;100.00;98571.71;1693326;84;21493;-70
2021/08/17 02:11:43;;;;;;;20.35;12.55;;;;;;;18.87;100.00;98573.52;1672519;84;20958;-70
2021/08/17 02:14:11;;;;;;;20.77;12.33;;;;;;;18.85;100.00;98574.53;1696835;83;21446;-70
2021/08/17 02:16:41;;;;;;;21.12;13.38;;;;;;;18.83;100.00;98563.06;1696807;84;21426;-70
2021/08/17 02:19:10;;;;;;;21.65;13.15;;;;;;;18.84;100.00;98566.13;1706952;82;21948;-71
2021/08/17 02:21:40;;;;;;;19.48;12.60;;;;;;;18.83;100.00;98567.93;1702522;83;20942;-71
2021/08/17 02:24:08;;;;;;;25.90;13.10;;;;;;;18.88;100.00;98571.71;1701959;83;20978;-70
2021/08/17 02:26:38;;;;;;;18.25;11.75;;;;;;;18.91;100.00;98569.36;1696698;84;21092;-71
2021/08/17 02:29:07;;;;;;;17.73;12.50;;;;;;;18.95;100.00;98561.63;1699080;83;21030;-71
2021/08/17 02:31:37;;;;;;;19.92;12.33;;;;;;;18.97;100.00;98567.76;1703081;83;21188;-71
2021/08/17 02:34:06;;;;;;;17.30;12.40;;;;;;;18.93;100.00;98564.38;1702607;83;21034;-71
2021/08/17 02:36:37;;;;;;;17.02;12.40;;;;;;;18.93;100.00;98569.72;1696992;83;21140;-70
2021/08/17 02:39:06;;;;;;;18.05;12.60;;;;;;;18.96;100.00;98569.56;1697780;84;21253;-71
2021/08/17 02:41:36;;;;;;;22.95;12.18;;;;;;;18.99;100.00;98565.88;1703393;83;21553;-71
2021/08/17 02:44:05;;;;;;;18.32;12.37;;;;;;;19.00;100.00;98568.47;1703135;83;21152;-71
2021/08/17 02:46:33;;;;;;;16.07;11.38;;;;;;;19.00;100.00;98561.78;1696904;84;20880;-71
2021/08/17 02:49:02;;;;;;;46.88;14.18;;;;;;;19.00;100.00;98555.11;1696625;84;20963;-70
2021/08/17 02:51:30;;;;;;;17.32;11.97;;;;;;;18.97;100.00;98555.26;1699680;82;21022;-71
2021/08/17 02:54:00;;;;;;;19.48;11.85;;;;;;;18.92;100.00;98554.63;1701827;84;21057;-70
2021/08/17 02:56:28;;;;;;;17.15;11.73;;;;;;;18.86;100.00;98561.10;1692734;84;21073;-71
2021/08/17 02:58:58;;;;;;;25.43;13.35;;;;;;;18.81;100.00;98560.46;1668855;84;21517;-71
2021/08/17 03:01:27;;;;;;;20.37;11.85;;;;;;;18.74;100.00;98559.50;1702075;84;21517;-70
2021/08/17 03:03:55;;;;;;;16.50;11.60;;;;;;;18.71;100.00;98558.31;1702861;84;21058;-70
2021/08/17 03:06:23;;;;;;;18.52;11.57;;;;;;;18.72;100.00;98564.05;1703252;84;20895;-70
2021/08/17 03:08:51;;;;;;;19.98;11.80;;;;;;;18.68;100.00;98557.12;1702012;84;21207;-70
2021/08/17 03:11:20;;;;;;;20.10;11.93;;;;;;;18.64;100.00;98564.42;1701807;84;20898;-71
2021/08/17 03:13:52;;;;;;;13.35;10.72;;;;;;;18.60;100.00;98553.92;1702519;84;21425;-70
2021/08/17 03:16:21;;;;;;;18.07;11.50;;;;;;;18.59;100.00;98561.07;1702391;84;20887;-69
2021/08/17 03:18:50;;;;;;;22.07;11.70;;;;;;;18.58;100.00;98563.34;1700199;84;21470;-70
2021/08/17 03:21:23;;;;;;;22.60;12.75;;;;;;;18.55;100.00;98566.16;1689645;84;21411;-71
2021/08/17 03:23:51;;;;;;;55.50;12.40;;;;;;;18.51;100.00;98565.45;1685812;84;20955;-66
2021/08/17 03:26:19;;;;;;;21.00;12.28;;;;;;;18.47;100.00;98570.53;1698609;84;20963;-66
2021/08/17 03:28:48;;;;;;;25.62;11.68;;;;;;;18.46;100.00;98569.27;1694282;84;20907;-65
2021/08/17 03:31:16;;;;;;;17.60;12.45;;;;;;;18.44;100.00;98571.98;1691948;84;20952;-65
2021/08/17 03:33:45;;;;;;;19.40;11.57;;;;;;;18.46;100.00;98574.14;1694920;84;21452;-64
2021/08/17 03:36:13;;;;;;;22.25;11.65;;;;;;;18.46;100.00;98570.14;1674287;84;21032;-65
2021/08/17 03:38:43;;;;;;;26.60;11.40;;;;;;;18.52;100.00;98579.66;1700251;84;20974;-64
2021/08/17 03:41:14;;;;;;;20.37;11.00;;;;;;;18.56;100.00;98574.10;1697835;84;21039;-65
2021/08/17 03:43:44;;;;;;;21.10;11.10;;;;;;;18.62;100.00;98582.80;1695688;84;21087;-65
2021/08/17 03:46:12;;;;;;;30.48;11.60;;;;;;;18.66;100.00;98582.58;1693906;84;21561;-65
2021/08/17 03:48:40;;;;;;;19.05;11.05;;;;;;;18.70;100.00;98584.16;1695037;84;21731;-64
2021/08/17 03:51:08;;;;;;;19.55;11.18;;;;;;;18.76;100.00;98584.34;1695592;84;21478;-64
2021/08/17 03:53:38;;;;;;;16.62;11.05;;;;;;;18.81;100.00;98581.84;1701399;82;21520;-64
2021/08/17 03:56:06;;;;;;;20.05;10.72;;;;;;;18.88;100.00;98586.41;1700250;82;21026;-65
2021/08/17 03:58:35;;;;;;;28.98;11.15;;;;;;;18.95;100.00;98586.54;1700695;84;21552;-65
2021/08/17 04:01:03;;;;;;;42.35;12.90;;;;;;;19.02;100.00;98585.30;1700312;84;21066;-64
2021/08/17 04:03:33;;;;;;;21.02;11.30;;;;;;;19.08;100.00;98585.47;1696119;84;20880;-64
2021/08/17 04:06:02;;;;;;;23.15;11.28;;;;;;;19.14;100.00;98584.69;1691057;84;21422;-67
2021/08/17 04:08:30;;;;;;;22.42;10.90;;;;;;;19.17;100.00;98589.88;1697135;84;21462;-62
2021/08/17 04:11:00;;;;;;;22.05;11.35;;;;;;;19.20;100.00;98584.85;1696342;84;21447;-65
2021/08/17 04:13:30;;;;;;;15.28;11.05;;;;;;;19.24;100.00;98578.41;1684439;84;20904;-63
2021/08/17 04:15:58;;;;;;;21.97;11.08;;;;;;;19.28;100.00;98585.33;1671564;85;20972;-64
2021/08/17 04:18:28;;;;;;;44.73;13.30;;;;;;;19.33;100.00;98581.95;1680971;85;21501;-63
2021/08/17 04:20:57;;;;;;;21.45;11.70;;;;;;;19.40;100.00;98586.55;1688516;84;20916;-66
2021/08/17 04:23:25;;;;;;;17.42;10.53;;;;;;;19.47;100.00;98595.52;1672949;85;21136;-67
2021/08/17 04:25:54;;;;;;;18.45;10.88;;;;;;;19.54;100.00;98594.77;1671466;85;21582;-67
2021/08/17 04:28:22;;;;;;;15.95;10.82;;;;;;;19.61;100.00;98594.85;1674204;85;20955;-68
2021/08/17 04:30:50;;;;;;;22.17;12.00;;;;;;;19.67;100.00;98594.53;1679318;85;21497;-66
2021/08/17 04:33:17;;;;;;;20.35;11.95;;;;;;;19.74;100.00;98599.09;1687730;85;21022;-64
2021/08/17 04:35:46;;;;;;;30.12;12.55;;;;;;;19.80;100.00;98598.77;1691562;83;21818;-68
2021/08/17 04:38:14;;;;;;;25.57;12.20;;;;;;;19.87;100.00;98598.87;1699835;83;20927;-68
2021/08/17 04:40:43;;;;;;;25.62;11.55;;;;;;;19.93;100.00;98597.21;1671873;85;21385;-68
2021/08/17 04:43:12;;;;;;;18.48;10.28;;;;;;;20.00;100.00;98594.60;1671022;85;20976;-68
2021/08/17 04:45:42;;;;;;;18.57;11.12;;;;;;;20.09;100.00;98598.13;1682433;85;20951;-68
2021/08/17 04:48:16;;;;;;;17.27;10.25;;;;;;;20.19;100.00;98596.30;1687591;85;39314;-69
2021/08/17 04:50:45;;;;;;;18.10;10.58;;;;;;;20.25;100.00;98600.84;1686045;84;21064;-69
2021/08/17 04:53:14;;;;;;;19.80;11.05;;;;;;;20.31;100.00;98603.66;1681859;85;20988;-69
2021/08/17 04:55:44;;;;;;;55.58;13.38;;;;;;;20.37;100.00;98606.05;1680904;85;21506;-69
2021/08/17 04:58:13;;;;;;;22.87;10.93;;;;;;;20.47;100.00;98606.44;1690189;83;21109;-68
2021/08/17 05:00:44;;;;;;;17.00;10.32;;;;;;;20.52;100.00;98606.57;1692121;84;21117;-68
2021/08/17 05:03:13;;;;;;;24.50;10.15;;;;;;;20.60;100.00;98612.84;1686394;85;21455;-68
2021/08/17 05:05:41;;;;;;;16.95;10.25;;;;;;;20.67;100.00;98605.72;1686487;84;21399;-68
2021/08/17 05:08:11;;;;;;;15.03;11.05;;;;;;;20.72;100.00;98607.67;1687328;83;21509;-68
2021/08/17 05:10:40;;;;;;;24.77;11.33;;;;;;;20.80;100.00;98599.67;1693554;84;21039;-69
2021/08/17 05:13:10;;;;;;;16.55;10.93;;;;;;;20.84;100.00;98600.78;1692783;83;20947;-68
2021/08/17 05:15:42;;;;;;;17.60;10.98;;;;;;;20.90;100.00;98607.61;1691463;84;20912;-69
2021/08/17 05:18:11;;;;;;;19.92;9.80;;;;;;;20.96;100.00;98607.27;1688933;84;20987;-69
2021/08/17 05:20:40;;;;;;;15.50;10.60;;;;;;;21.04;100.00;98601.85;1703850;83;20912;-69
2021/08/17 05:23:10;;;;;;;23.83;10.38;;;;;;;21.18;100.00;98608.23;1688772;83;21485;-69
2021/08/17 05:25:38;;;;;;;18.65;10.30;;;;;;;21.25;100.00;98599.78;1693384;84;21163;-69
2021/08/17 05:28:08;;;;;;;17.20;10.18;;;;;;;21.34;100.00;98601.09;1697457;83;20954;-69
2021/08/17 05:30:36;;;;;;;15.75;9.68;;;;;;;21.43;100.00;98601.03;1702970;83;20919;-69
2021/08/17 05:33:05;;;;;;;20.10;10.40;;;;;;;21.53;100.00;98603.55;1702577;83;20997;-69
2021/08/17 05:35:33;;;;;;;17.67;9.88;;;;;;;21.60;100.00;98595.05;1703155;83;21513;-69
2021/08/17 05:38:03;;;;;;;14.78;8.93;;;;;;;21.70;100.00;98592.67;1699302;83;21167;-70
2021/08/17 05:40:31;;;;;;;21.27;9.25;;;;;;;21.83;100.00;98596.86;1662539;85;21022;-69
2021/08/17 05:43:02;;;;;;;12.45;8.35;;;;;;;21.94;100.00;98592.56;1663795;84;20963;-69
2021/08/17 05:45:31;;;;;;;15.60;8.60;;;;;;;22.07;100.00;98587.81;1665405;84;21050;-70
2021/08/17 05:47:59;;;;;;;14.68;8.08;;;;;;;22.17;100.00;98581.77;1665765;84;20915;-68
2021/08/17 05:50:28;;;;;;;13.93;8.40;;;;;;;22.30;100.00;98581.89;1665512;84;21458;-68
2021/08/17 05:52:57;;;;;;;16.97;8.75;;;;;;;22.41;100.00;98575.36;1665301;84;21006;-68
2021/08/17 05:55:25;;;;;;;24.92;9.68;;;;;;;22.52;100.00;98573.34;1681790;83;20937;-69
2021/08/17 05:57:59;;;;;;;17.27;7.95;;;;;;;22.63;100.00;98579.75;1657414;86;20952;-68
2021/08/17 06:00:27;;;;;;;12.45;7.70;;;;;;;22.74;100.00;98575.06;1664198;85;20896;-68
2021/08/17 06:02:54;;;;;;;15.80;7.50;;;;;;;22.86;100.00;98573.43;1685084;85;21139;-69
2021/08/17 06:05:22;;;;;;;12.73;6.97;;;;;;;22.98;100.00;98567.25;1681414;85;21640;-68
2021/08/17 06:07:50;;;;;;;15.55;7.45;;;;;;;23.11;100.00;98566.81;1685524;85;21474;-69
2021/08/17 06:10:18;;;;;;;10.50;6.40;;;;;;;23.25;100.00;98568.62;1685358;85;21501;-69
2021/08/17 06:12:47;;;;;;;17.17;6.53;;;;;;;23.40;100.00;98558.16;1685263;85;21032;-68
2021/08/17 06:15:15;;;;;;;11.88;6.05;;;;;;;23.57;100.00;98558.88;1661402;85;21779;-69
2021/08/17 06:17:45;;;;;;;11.70;6.08;;;;;;;23.72;100.00;98549.77;1662480;85;20963;-68
2021/08/17 06:20:14;;;;;;;11.95;6.15;;;;;;;23.87;100.00;98546.02;1661887;85;20991;-69
2021/08/17 06:22:44;;;;;;;13.70;5.53;;;;;;;24.05;100.00;98550.11;1685357;85;20911;-69
2021/08/17 06:25:12;;;;;;;11.63;5.00;;;;;;;24.18;100.00;98552.34;1669510;85;20947;-69
2021/08/17 06:27:39;;;;;;;8.55;4.70;;;;;;;24.30;100.00;98541.69;1638862;87;22001;-69
2021/08/17 06:30:08;;;;;;;9.45;5.20;;;;;;;24.46;100.00;98545.00;1659323;85;21006;-69
2021/08/17 06:32:37;;;;;;;8.53;5.03;;;;;;;24.61;100.00;98541.71;1660670;86;20995;-69
2021/08/17 06:35:07;;;;;;;13.35;4.80;;;;;;;24.75;100.00;98543.77;1661844;85;20995;-69
2021/08/17 06:37:37;;;;;;;8.20;4.53;;;;;;;24.89;100.00;98545.44;1660692;86;21382;-70
2021/08/17 06:40:06;;;;;;;7.72;3.95;;;;;;;25.05;100.00;98555.98;1680772;85;21107;-69
2021/08/17 06:42:34;;;;;;;10.55;4.25;;;;;;;25.21;100.00;98554.38;1684996;85;20932;-70
2021/08/17 06:45:01;;;;;;;117.90;9.40;;;;;;;25.35;100.00;98546.96;1661930;85;21024;-69
2021/08/17 06:47:28;;;;;;;11.45;4.22;;;;;;;25.51;100.00;98539.90;1660577;85;21002;-69
2021/08/17 06:49:56;;;;;;;30.02;5.12;;;;;;;25.65;99.48;98533.47;1683825;85;21108;-69
2021/08/17 06:52:24;;;;;;;10.03;4.10;;;;;;;25.79;97.09;98541.39;1684777;85;22002;-65
2021/08/17 06:54:52;;;;;;;7.78;3.70;;;;;;;25.93;96.04;98542.52;1671097;85;20931;-66
2021/08/17 06:57:20;;;;;;;10.18;4.03;;;;;;;26.09;96.66;98542.20;1675629;84;21006;-65
2021/08/17 06:59:49;;;;;;;7.45;4.35;;;;;;;26.22;93.83;98542.95;1678496;84;20991;-66
2021/08/17 07:02:17;;;;;;;9.33;3.83;;;;;;;26.34;89.51;98540.64;1686701;84;20951;-66
2021/08/17 07:04:45;;;;;;;8.23;3.98;;;;;;;26.49;88.88;98543.99;1679952;84;21177;-71
2021/08/17 07:07:14;;;;;;;12.43;4.37;;;;;;;26.61;84.23;98547.55;1671537;85;21462;-70
2021/08/17 07:09:42;;;;;;;23.67;4.72;;;;;;;26.71;84.24;98538.19;1671607;85;20911;-71
2021/08/17 07:12:13;;;;;;;25.40;4.97;;;;;;;26.80;79.25;98535.58;1671454;85;20955;-71
2021/08/17 07:14:43;;;;;;;8.35;3.77;;;;;;;26.89;78.72;98528.55;1672149;84;20939;-72
2021/08/17 07:17:11;;;;;;;10.08;3.95;;;;;;;27.00;73.96;98530.44;1673654;85;21452;-70
2021/08/17 07:19:40;;;;;;;12.58;4.28;;;;;;;27.10;73.73;98532.73;1673993;85;21481;-71
2021/08/17 07:22:10;;;;;;;13.48;4.58;;;;;;;27.20;75.48;98540.45;1674215;85;20959;-71
2021/08/17 07:24:38;;;;;;;15.53;3.50;;;;;;;27.32;73.65;98531.30;1666487;85;20971;-71
2021/08/17 08:24:01;;;;;;;8.13;4.30;;;;;;;29.75;54.28;98525.49;1786142;80;22748;-68
2021/08/17 08:26:29;;;;;;;54.27;6.22;;;;;;;29.83;53.41;98518.00;1791477;79;20883;-68
2021/08/17 08:28:57;;;;;;;13.45;4.75;;;;;;;29.86;51.08;98532.16;1763590;81;21206;-69
2021/08/17 08:31:24;;;;;;;15.03;4.90;;;;;;;29.89;49.44;98522.85;1784829;80;20957;-68
2021/08/17 08:33:53;;;;;;;8.43;3.98;;;;;;;29.90;50.42;98526.78;1776848;80;20969;-70
2021/08/17 08:36:21;;;;;;;6.70;4.12;;;;;;;29.89;49.14;98523.70;1780514;80;20894;-69
2021/08/17 08:38:49;;;;;;;8.78;3.95;;;;;;;29.88;50.31;98522.00;1791116;79;20876;-69
2021/08/17 08:41:19;;;;;;;7.87;3.80;;;;;;;29.94;53.74;98523.27;1773281;80;21824;-69
2021/08/17 08:43:47;;;;;;;4.78;3.37;;;;;;;30.02;52.38;98514.77;1765259;80;21425;-69
2021/08/17 12:33:54;;;;;;;16.15;4.87;;;;;;;33.33;36.11;98450.67;1786544;80;22005;-67
2021/08/17 12:36:50;;;;;;;7.20;3.95;;;;;;;33.32;35.71;98447.59;1791266;80;20970;-67
2021/08/17 12:39:26;;;;;;;22.73;4.97;;;;;;;33.34;36.06;98448.80;1791123;79;20883;-68
2021/08/17 12:42:06;;;;;;;14.80;6.40;;;;;;;33.33;35.34;98440.25;1787562;79;21481;-67
2021/08/17 12:44:42;;;;;;;12.63;5.00;;;;;;;33.29;35.94;98436.97;1783267;79;20931;-68
2021/08/17 12:47:26;;;;;;;10.08;5.58;;;;;;;33.26;35.88;98444.66;1783561;80;21493;-68
2021/08/17 12:50:01;;;;;;;26.87;7.40;;;;;;;33.22;35.32;98436.45;1750918;81;20947;-67
2021/08/17 12:52:43;;;;;;;17.52;7.37;;;;;;;33.18;35.62;98444.14;1736702;81;21441;-66
2021/08/17 12:55:19;;;;;;;9.60;6.22;;;;;;;33.16;35.13;98433.38;1783301;80;21442;-66
2021/08/17 12:57:52;;;;;;;8.95;5.37;;;;;;;33.11;35.14;98428.94;1752263;80;20875;-67
2021/08/17 13:00:22;;;;;;;9.65;5.35;;;;;;;33.06;35.05;98428.56;1754734;81;20993;-67
2021/08/17 13:02:50;;;;;;;10.93;6.25;;;;;;;33.09;35.20;98430.09;1759890;81;20914;-67
2021/08/17 13:05:20;;;;;;;12.47;6.67;;;;;;;33.11;35.39;98429.42;1740162;81;21654;-64
2021/08/17 13:07:48;;;;;;;11.12;7.47;;;;;;;33.11;35.35;98430.30;1754062;81;20857;-67
2021/08/17 13:10:21;;;;;;;13.95;8.28;;;;;;;33.14;35.64;98423.64;1760638;81;21350;-67
2021/08/17 13:12:46;;;;;;;14.68;7.97;;;;;;;33.16;35.82;98422.45;1753810;81;20958;-68
2021/08/17 13:15:17;;;;;;;10.35;5.47;;;;;;;33.19;35.05;98432.19;1785550;80;20923;-64
2021/08/17 13:17:46;;;;;;;131.52;10.85;;;;;;;33.13;34.19;98426.89;1739786;81;20850;-68
2021/08/17 13:20:20;;;;;;;11.95;4.95;;;;;;;33.06;35.02;98420.36;1746293;80;21495;-69
2021/08/17 13:22:49;;;;;;;8.35;4.55;;;;;;;33.01;35.17;98421.89;1754191;81;21482;-69
2021/08/17 13:25:17;;;;;;;12.93;4.90;;;;;;;32.98;34.95;98414.89;1760139;81;20864;-68
2021/08/17 13:27:47;;;;;;;6.97;4.53;;;;;;;33.01;35.73;98418.65;1760776;81;20844;-68
2021/08/17 13:30:15;;;;;;;8.15;4.35;;;;;;;32.96;35.69;98422.41;1823874;78;21802;-69
2021/08/17 13:32:43;;;;;;;11.55;3.92;;;;;;;32.86;35.58;98423.92;1823475;78;20891;-69
2021/08/17 13:35:11;;;;;;;8.60;4.08;;;;;;;32.84;35.75;98412.83;1753420;81;20951;-69
2021/08/17 13:37:39;;;;;;;13.48;4.50;;;;;;;32.83;35.84;98420.67;1760285;81;20982;-69
2021/08/17 13:40:08;;;;;;;58.78;8.85;;;;;;;32.81;34.64;98418.11;1753412;81;20918;-69
2021/08/17 13:42:36;;;;;;;43.50;6.17;;;;;;;32.78;35.32;98421.17;1760152;81;21108;-70
2021/08/17 13:45:06;;;;;;;18.50;4.15;;;;;;;32.76;35.41;98416.36;1726216;81;20941;-70
2021/08/17 13:47:34;;;;;;;71.87;7.70;;;;;;;32.79;36.18;98422.03;1760335;81;21406;-70
2021/08/17 13:50:02;;;;;;;8.23;4.35;;;;;;;32.78;35.54;98416.23;1753418;81;20996;-70
2021/08/17 13:52:31;;;;;;;7.92;3.95;;;;;;;32.78;35.40;98417.59;1760387;81;20922;-70
2021/08/17 13:54:58;;;;;;;33.18;6.15;;;;;;;32.77;36.39;98417.22;1823145;78;21137;-70
2021/08/17 13:57:26;;;;;;;8.05;3.40;;;;;;;32.81;37.38;98424.08;1823078;78;20898;-70
2021/08/17 13:59:54;;;;;;;14.95;3.90;;;;;;;32.83;37.35;98422.89;1753385;81;20999;-64
2021/08/17 14:02:22;;;;;;;5.92;3.70;;;;;;;32.81;36.31;98410.43;1751652;81;21007;-70
2021/08/17 14:04:49;;;;;;;6.33;3.42;;;;;;;32.75;36.02;98420.63;1751882;81;21029;-70
2021/08/17 14:07:22;;;;;;;69.97;8.75;;;;;;;32.69;35.82;98421.30;1750472;80;21344;-70
2021/08/17 14:09:50;;;;;;;7.25;3.35;;;;;;;32.66;35.80;98422.48;1744521;80;20897;-65
2021/08/17 14:12:19;;;;;;;7.72;3.30;;;;;;;32.60;35.84;98419.02;1762763;81;20980;-70
2021/08/17 14:14:50;;;;;;;6.90;3.67;;;;;;;32.57;36.08;98417.98;1767385;80;21477;-70
2021/08/17 14:17:17;;;;;;;5.03;3.37;;;;;;;32.52;36.12;98411.66;1782735;80;20838;-66
2021/08/17 14:19:48;;;;;;;20.45;4.95;;;;;;;32.50;36.81;98416.44;1794040;78;21391;-69
2021/08/17 14:22:16;;;;;;;8.33;4.00;;;;;;;32.43;36.38;98415.39;1759881;80;20943;-69
2021/08/17 14:24:45;;;;;;;17.48;5.60;;;;;;;32.34;36.76;98408.70;1761515;81;20976;-70
2021/08/17 14:27:15;;;;;;;7.17;4.12;;;;;;;32.30;36.99;98410.91;1786392;80;21579;-66
2021/08/17 14:29:43;;;;;;;8.48;4.05;;;;;;;32.28;38.01;98404.77;1786306;80;20969;-69
2021/08/17 14:32:11;;;;;;;15.00;4.47;;;;;;;32.27;38.70;98396.73;1781475;80;21794;-69
2021/08/17 14:34:39;;;;;;;8.98;3.92;;;;;;;32.27;39.51;98405.78;1755107;80;20846;-69
2021/08/17 14:37:07;;;;;;;10.05;3.62;;;;;;;32.29;40.29;98405.10;1733493;81;20952;-68
2021/08/17 14:39:37;;;;;;;22.58;5.08;;;;;;;32.26;38.88;98399.97;1759387;80;20895;-71
2021/08/17 14:42:07;;;;;;;10.75;3.83;;;;;;;32.20;39.27;98396.51;1757508;81;20953;-69
2021/08/17 14:44:35;;;;;;;9.93;4.28;;;;;;;32.12;38.94;98389.62;1755966;80;21126;-69
2021/08/17 14:47:03;;;;;;;12.25;4.58;;;;;;;32.01;39.24;98386.67;1767251;80;21013;-69
2021/08/17 14:49:32;;;;;;;17.73;5.15;;;;;;;31.91;39.12;98380.48;1822233;78;21509;-69
2021/08/17 14:52:01;;;;;;;7.47;3.65;;;;;;;31.82;39.16;98378.73;1760250;81;20878;-68
2021/08/17 14:54:30;;;;;;;7.25;4.00;;;;;;;31.73;39.69;98381.93;1793013;80;21473;-68
2021/08/17 14:57:00;;;;;;;12.58;4.25;;;;;;;31.66;39.51;98375.86;1733863;81;21139;-69
2021/08/17 14:59:28;;;;;;;13.32;4.08;;;;;;;31.60;39.63;98376.00;1744906;81;20931;-68
2021/08/17 15:01:55;;;;;;;11.53;4.08;;;;;;;31.55;39.43;98373.75;1753692;81;20943;-69
2021/08/17 15:04:23;;;;;;;5.83;3.98;;;;;;;31.48;39.85;98369.95;1761917;80;20953;-69
2021/08/17 15:06:51;;;;;;;9.58;4.05;;;;;;;31.41;39.48;98370.76;1761762;80;21010;-68
2021/08/17 15:09:19;;;;;;;11.60;4.12;;;;;;;31.33;39.44;98367.47;1753573;81;21165;-69
2021/08/17 15:11:48;;;;;;;11.35;4.30;;;;;;;31.26;39.21;98359.08;1754321;81;21618;-69
2021/08/17 15:14:17;;;;;;;9.83;4.65;;;;;;;31.18;39.66;98358.12;1753531;81;21390;-69
2021/08/17 15:16:47;;;;;;;8.88;4.55;;;;;;;31.08;39.94;98354.11;1762633;80;20903;-69
2021/08/17 15:19:17;;;;;;;8.43;4.17;;;;;;;31.00;40.32;98356.26;1756157;81;21447;-69
2021/08/17 15:21:46;;;;;;;10.63;4.50;;;;;;;30.93;38.60;98357.91;1764643;81;21985;-69
2021/08/17 15:24:14;;;;;;;10.48;4.15;;;;;;;30.87;38.58;98361.25;1756980;81;20979;-69
2021/08/17 15:26:43;;;;;;;6.90;4.15;;;;;;;30.78;40.52;98355.39;1750766;81;21519;-69
2021/08/17 15:29:11;;;;;;;8.35;4.72;;;;;;;30.70;41.52;98362.94;1784102;80;20888;-68
2021/08/17 15:31:39;;;;;;;169.15;19.35;;;;;;;30.61;41.56;98365.73;1758076;80;21355;-69
2021/08/17 15:34:08;;;;;;;9.20;4.45;;;;;;;30.51;41.25;98367.13;1754082;81;21406;-69
2021/08/17 15:36:36;;;;;;;43.00;6.97;;;;;;;30.44;40.60;98367.40;1779012;79;20964;-69
2021/08/17 15:39:04;;;;;;;13.78;4.65;;;;;;;30.38;41.11;98375.67;1756943;81;20976;-69
2021/08/17 15:41:35;;;;;;;10.75;4.37;;;;;;;30.32;41.43;98380.88;1776938;80;21632;-69
2021/08/17 15:44:04;;;;;;;18.45;5.17;;;;;;;30.15;41.87;98386.59;1752048;80;20919;-68
2021/08/17 15:46:32;;;;;;;6.75;4.28;;;;;;;30.15;41.87;98386.59;1755010;80;21154;-69
2021/08/17 15:49:01;;;;;;;7.12;4.20;;;;;;;30.08;41.85;98384.98;1761815;80;21387;-69
2021/08/17 15:51:32;;;;;;;11.57;4.30;;;;;;;30.03;42.50;98379.14;1753484;81;21502;-69
2021/08/17 15:54:01;;;;;;;42.35;6.85;;;;;;;29.99;42.92;98383.63;1753492;81;20956;-69
2021/08/17 15:56:31;;;;;;;15.77;4.90;;;;;;;29.88;43.65;98389.27;1763848;80;20913;-69
2021/08/17 15:59:01;;;;;;;105.90;12.73;;;;;;;29.76;44.34;98383.13;1768528;80;21172;-69
2021/08/17 16:01:29;;;;;;;11.68;4.97;;;;;;;29.70;45.95;98385.09;1765051;81;21413;-70
2021/08/17 16:03:57;;;;;;;8.33;4.30;;;;;;;29.62;47.34;98384.47;1764732;81;20872;-69
2021/08/17 16:06:25;;;;;;;15.70;5.17;;;;;;;29.58;47.98;98392.56;1760178;80;21041;-70
2021/08/17 16:08:53;;;;;;;8.95;4.95;;;;;;;29.57;47.78;98400.36;1753549;81;21080;-70
2021/08/17 16:11:23;;;;;;;8.13;4.78;;;;;;;29.52;47.86;98405.88;1765209;80;20976;-69